Time;durP1;ratioP1;P1;durP2;ratioP2;P2;SDS_P1;SDS_P2;PMS_P1;PMS_P2;Temp;Humidity;BMP_temperature;BMP_pressure;BME280_temperature;BME280_humidity;BME280_pressure;Samples;Min_cycle;Max_cycle;Signal;HPM_P1;HPM_P2
2022/07/17 00:01:45;;;;;;;4.82;1.92;;;;;;;22.29;43.10;99334.47;5008226;28;20022;-69
2022/07/17 00:04:10;;;;;;;3.17;1.42;;;;;;;22.28;43.40;99339.03;5008368;28;20094;-69
2022/07/17 00:06:36;;;;;;;6.57;1.80;;;;;;;22.25;43.36;99331.34;5009122;28;20120;-69
2022/07/17 00:09:01;;;;;;;5.47;2.22;;;;;;;22.19;43.51;99333.00;5008531;28;20026;-69
2022/07/17 00:11:27;;;;;;;5.05;1.67;;;;;;;22.07;43.87;99332.72;5015406;28;20025;-69
2022/07/17 00:13:53;;;;;;;5.03;1.70;;;;;;;22.01;44.01;99332.69;5026539;28;20093;-69
2022/07/17 00:16:19;;;;;;;4.45;2.13;;;;;;;21.88;44.20;99328.91;5007979;28;20298;-69
2022/07/17 00:18:44;;;;;;;2.28;1.45;;;;;;;21.84;44.38;99330.34;5008218;28;20057;-69
2022/07/17 00:21:10;;;;;;;4.97;1.80;;;;;;;21.88;44.31;99345.09;5009204;28;20026;-69
2022/07/17 00:23:35;;;;;;;4.07;2.17;;;;;;;21.92;44.24;99337.44;5007974;28;20029;-69
2022/07/17 00:26:01;;;;;;;3.25;1.58;;;;;;;21.98;43.94;99330.44;5007812;28;20057;-69
2022/07/17 00:28:27;;;;;;;3.97;2.25;;;;;;;22.03;44.01;99334.19;5007804;28;20019;-69
2022/07/17 00:30:52;;;;;;;4.50;1.52;;;;;;;22.07;43.93;99338.13;5013222;28;20101;-69
2022/07/17 00:33:17;;;;;;;4.88;1.80;;;;;;;22.16;43.59;99330.69;5027623;28;20022;-69
2022/07/17 00:35:43;;;;;;;2.75;1.50;;;;;;;22.17;43.91;99332.34;5027585;28;20113;-69
2022/07/17 00:38:10;;;;;;;7.45;1.75;;;;;;;22.09;44.12;99332.53;5027298;28;20030;-70
2022/07/17 00:40:35;;;;;;;5.25;1.90;;;;;;;21.99;44.25;99327.53;5025782;28;20045;-70
2022/07/17 00:43:00;;;;;;;4.68;1.85;;;;;;;22.04;44.29;99335.00;5012670;28;20038;-70
2022/07/17 00:45:26;;;;;;;5.65;2.13;;;;;;;22.12;43.71;99334.84;5007632;28;20034;-70
2022/07/17 00:47:58;;;;;;;5.43;1.75;;;;;;;22.27;43.73;99337.38;5007722;28;20018;-70
2022/07/17 00:50:29;;;;;;;5.22;1.50;;;;;;;22.34;43.47;99332.84;5008565;28;20050;-70
2022/07/17 00:52:55;;;;;;;;;;;;;;;22.23;43.91;99328.88;5007809;28;20022;-70
2022/07/17 00:55:22;;;;;;;2.20;1.60;;;;;;;22.05;44.13;99329.44;5022668;28;20008;-70
2022/07/17 00:57:49;;;;;;;3.88;1.73;;;;;;;22.01;44.43;99325.47;5027031;28;20050;-70
2022/07/17 01:00:17;;;;;;;4.38;1.40;;;;;;;21.98;44.39;99331.25;5025213;28;20060;-70
2022/07/17 01:02:48;;;;;;;4.53;1.50;;;;;;;21.90;44.61;99329.56;5026975;28;20048;-69
2022/07/17 01:05:14;;;;;;;4.27;1.97;;;;;;;21.82;44.98;99337.81;5008939;28;20034;-70
2022/07/17 01:07:40;;;;;;;2.47;1.55;;;;;;;;;;5007218;28;20289;-70
2022/07/17 01:10:06;;;;;;;6.25;1.38;;;;;;;21.77;45.04;99338.38;5011731;28;20021;-70
2022/07/17 01:12:32;;;;;;;2.83;1.50;;;;;;;21.91;44.75;99325.03;5026453;28;20124;-69
2022/07/17 01:14:59;;;;;;;5.18;1.70;;;;;;;22.02;44.35;99340.59;5016893;28;20242;-69
2022/07/17 01:17:25;;;;;;;4.90;1.80;;;;;;;22.16;44.35;99343.34;5007085;28;20042;-69
2022/07/17 01:19:51;;;;;;;2.13;1.40;;;;;;;22.23;44.13;99341.50;5010851;28;20201;-69
2022/07/17 01:22:16;;;;;;;3.00;1.63;;;;;;;22.28;44.03;99341.72;5030000;28;20033;-70
2022/07/17 01:24:42;;;;;;;4.72;2.28;;;;;;;22.29;43.96;99348.78;5033319;28;20032;-69
2022/07/17 01:27:07;;;;;;;3.20;1.67;;;;;;;22.22;44.01;99348.75;5028400;28;20054;-69
2022/07/17 01:29:36;;;;;;;4.32;1.48;;;;;;;22.16;44.23;99354.13;5013634;28;20037;-69
2022/07/17 01:32:02;;;;;;;3.78;1.50;;;;;;;22.11;44.50;99349.34;5013615;28;20030;-70
2022/07/17 01:34:27;;;;;;;4.63;1.95;;;;;;;22.15;44.50;99352.47;5013556;28;20058;-70
2022/07/17 01:36:53;;;;;;;3.30;1.52;;;;;;;22.07;44.81;99351.59;5017001;28;20022;-70
2022/07/17 01:39:52;;;;;;;4.18;1.48;;;;;;;21.91;45.28;99355.47;5033190;28;20034;-70
2022/07/17 01:42:04;;;;;;;3.10;1.52;;;;;;;21.78;45.48;99348.13;5032986;28;20068;-70
2022/07/17 01:44:29;;;;;;;4.45;1.45;;;;;;;21.72;45.37;99346.25;5033070;28;20029;-70
2022/07/17 01:46:55;;;;;;;3.53;1.60;;;;;;;21.86;45.22;99351.72;5027565;28;20092;-70
2022/07/17 01:49:20;;;;;;;6.45;1.98;;;;;;;21.98;44.93;99351.97;5013515;28;20042;-70
2022/07/17 01:51:46;;;;;;;3.45;1.60;;;;;;;22.03;45.00;99355.72;5013390;28;20030;-69
2022/07/17 01:54:11;;;;;;;2.90;1.40;;;;;;;21.97;45.10;99359.22;5013273;28;20130;-70
2022/07/17 01:56:36;;;;;;;8.07;2.00;;;;;;;21.86;45.41;99355.22;5017310;28;20045;-70
2022/07/17 01:59:03;;;;;;;3.08;1.42;;;;;;;21.78;45.53;99358.09;5033068;28;20038;-70
2022/07/17 02:01:28;;;;;;;3.15;1.80;;;;;;;21.81;45.59;99357.69;5015681;28;20022;-70
2022/07/17 02:03:54;;;;;;;5.32;1.40;;;;;;;21.85;45.40;99358.94;5025214;28;20093;-70
2022/07/17 02:06:19;;;;;;;5.40;1.80;;;;;;;21.88;45.33;99358.56;5014139;28;20034;-70
2022/07/17 02:08:45;;;;;;;3.22;2.05;;;;;;;21.92;45.26;99357.13;5013508;28;20136;-70
2022/07/17 02:11:10;;;;;;;4.43;1.48;;;;;;;22.03;45.03;99347.66;5013289;28;20034;-70
2022/07/17 02:13:36;;;;;;;5.10;2.50;;;;;;;22.15;44.91;99357.84;5013398;28;20042;-70
2022/07/17 02:16:01;;;;;;;4.03;1.70;;;;;;;22.25;44.52;99361.00;5014283;28;20024;-71
2022/07/17 02:18:27;;;;;;;4.53;2.40;;;;;;;22.32;44.46;99355.63;5013180;28;20167;-70
2022/07/17 02:20:52;;;;;;;2.75;1.40;;;;;;;22.36;44.29;99348.81;5013429;28;20080;-70
2022/07/17 02:23:18;;;;;;;4.25;2.00;;;;;;;22.42;44.13;99355.28;4995984;28;20260;-70
2022/07/17 02:25:43;;;;;;;3.88;1.65;;;;;;;22.46;44.21;99353.84;5013981;28;20121;-70
2022/07/17 02:28:09;;;;;;;7.38;1.98;;;;;;;22.49;44.12;99356.13;5013339;28;20029;-70
2022/07/17 02:30:34;;;;;;;3.30;1.92;;;;;;;22.49;44.12;99361.53;5013351;28;20215;-70
2022/07/17 02:33:00;;;;;;;5.28;2.63;;;;;;;22.44;44.39;99351.31;5011646;28;20109;-70
2022/07/17 02:35:25;;;;;;;4.72;2.38;;;;;;;22.31;44.78;99352.09;5009984;28;20034;-70
2022/07/17 02:37:51;;;;;;;5.07;1.80;;;;;;;22.23;44.71;99353.13;5010267;28;20231;-70
2022/07/17 02:40:16;;;;;;;3.83;1.65;;;;;;;22.20;44.83;99348.13;5009976;28;20046;-70
2022/07/17 02:42:42;;;;;;;4.57;1.92;;;;;;;22.25;44.68;99347.50;5009821;28;20274;-70
2022/07/17 02:45:08;;;;;;;4.00;1.98;;;;;;;22.32;44.51;99351.06;5022760;28;20041;-70
2022/07/17 02:47:34;;;;;;;3.85;1.67;;;;;;;22.34;44.74;99353.56;5029516;28;20131;-70
2022/07/17 02:50:03;;;;;;;3.75;2.03;;;;;;;22.23;45.21;99355.81;5029335;28;20026;-70
2022/07/17 02:52:28;;;;;;;4.03;1.85;;;;;;;22.14;45.29;99348.09;5027119;28;20135;-70
2022/07/17 02:54:54;;;;;;;4.38;2.35;;;;;;;22.08;45.45;99358.63;5022315;28;20042;-71
2022/07/17 02:57:20;;;;;;;5.15;2.20;;;;;;;22.01;45.87;99349.72;5029196;28;20049;-70
2022/07/17 02:59:46;;;;;;;4.53;1.80;;;;;;;22.00;45.87;99349.91;5029205;28;20030;-70
2022/07/17 03:02:12;;;;;;;5.47;2.25;;;;;;;22.04;46.01;99353.84;5029126;28;20275;-70
2022/07/17 03:04:37;;;;;;;5.72;2.13;;;;;;;22.01;46.09;99354.25;5027436;28;20055;-70
2022/07/17 03:07:02;;;;;;;4.63;1.90;;;;;;;22.07;45.76;99353.47;5028995;28;20101;-70
2022/07/17 03:09:28;;;;;;;4.63;1.70;;;;;;;22.10;45.62;99355.75;5029026;28;20033;-70
2022/07/17 03:11:53;;;;;;;4.30;2.30;;;;;;;22.09;45.51;99368.38;5028898;28;20022;-71
2022/07/17 03:14:19;;;;;;;4.32;1.90;;;;;;;22.13;45.74;99365.28;5022026;28;20162;-70
2022/07/17 03:16:44;;;;;;;4.07;2.25;;;;;;;22.25;45.42;99358.28;5028838;28;20052;-70
2022/07/17 03:19:10;;;;;;;4.15;2.40;;;;;;;22.24;45.46;99356.63;5011763;28;20026;-70
2022/07/17 03:21:35;;;;;;;5.38;2.00;;;;;;;22.30;45.25;99355.00;5028707;28;20026;-71
2022/07/17 03:24:01;;;;;;;3.20;1.80;;;;;;;22.35;44.94;99347.94;5018664;28;20038;-70
2022/07/17 03:26:26;;;;;;;4.28;2.20;;;;;;;22.46;44.56;99348.44;5008937;28;20151;-70
2022/07/17 03:28:52;;;;;;;6.28;2.58;;;;;;;22.54;44.49;99348.25;5009022;28;20053;-70
2022/07/17 03:31:17;;;;;;;6.72;2.00;;;;;;;22.62;44.35;99358.88;5008994;28;20053;-70
2022/07/17 03:33:43;;;;;;;5.38;2.67;;;;;;;22.67;44.16;99353.66;5012895;28;20038;-70
2022/07/17 03:36:08;;;;;;;3.97;1.95;;;;;;;22.73;44.17;99360.09;5028439;28;20033;-70
2022/07/17 03:38:34;;;;;;;3.88;2.25;;;;;;;22.77;44.29;99355.16;5028430;28;20106;-70
2022/07/17 03:40:59;;;;;;;3.03;2.22;;;;;;;22.77;44.05;99358.66;5028431;28;20025;-70
2022/07/17 03:43:25;;;;;;;3.83;2.17;;;;;;;22.82;43.91;99364.28;5016428;28;20028;-70
2022/07/17 03:45:50;;;;;;;7.07;2.20;;;;;;;22.80;43.92;99360.97;5027956;28;20156;-70
2022/07/17 03:48:16;;;;;;;5.35;2.17;;;;;;;22.82;44.14;99358.03;5028219;28;20050;-70
2022/07/17 03:50:42;;;;;;;5.72;2.28;;;;;;;22.86;44.19;99362.00;5028271;28;20044;-70
2022/07/17 03:53:07;;;;;;;4.90;1.85;;;;;;;22.92;44.00;99360.34;5026314;28;20034;-70
2022/07/17 03:55:33;;;;;;;5.38;2.30;;;;;;;22.97;44.25;99366.78;5028155;28;20183;-71
2022/07/17 03:57:59;;;;;;;5.38;2.30;;;;;;;22.94;44.18;99369.06;5028004;28;20026;-71
2022/07/17 04:00:25;;;;;;;4.72;2.38;;;;;;;22.98;44.15;99373.84;5028074;28;20044;-70
2022/07/17 04:02:50;;;;;;;8.57;2.80;;;;;;;23.05;44.15;99375.72;5026346;28;20105;-70
2022/07/17 04:05:15;;;;;;;7.18;2.13;;;;;;;23.09;43.81;99371.56;5008623;28;20026;-71
2022/07/17 04:07:42;;;;;;;5.35;2.72;;;;;;;23.10;43.99;99376.75;5008259;28;20239;-71
2022/07/17 04:10:10;;;;;;;5.57;2.63;;;;;;;23.12;44.14;99372.00;5008539;28;20093;-71
2022/07/17 04:12:36;;;;;;;4.82;3.00;;;;;;;23.08;44.25;99361.81;5009039;28;20057;-70
2022/07/17 04:15:02;;;;;;;11.90;2.75;;;;;;;22.98;44.39;99365.75;5007907;28;20154;-70
2022/07/17 04:17:28;;;;;;;5.25;2.47;;;;;;;22.88;44.51;99364.47;5007992;28;20224;-70
2022/07/17 04:19:53;;;;;;;6.25;2.22;;;;;;;22.75;44.79;99366.13;5008120;28;20097;-71
2022/07/17 04:22:19;;;;;;;4.00;2.08;;;;;;;22.76;44.44;99367.78;5008043;28;20085;-70
2022/07/17 04:24:45;;;;;;;8.23;2.60;;;;;;;22.83;44.68;99363.25;5027192;28;20133;-71
2022/07/17 04:27:11;;;;;;;8.10;2.20;;;;;;;22.86;44.19;99359.31;5027372;28;20048;-70
2022/07/17 04:29:37;;;;;;;4.95;2.03;;;;;;;22.86;44.31;99356.59;5027593;28;20277;-71
2022/07/17 04:32:03;;;;;;;9.35;2.30;;;;;;;22.84;44.25;99351.44;5026857;28;20231;-70
2022/07/17 04:34:29;;;;;;;4.70;2.00;;;;;;;22.66;44.42;99349.31;5008768;28;20242;-70
2022/07/17 04:36:55;;;;;;;6.35;2.30;;;;;;;22.64;44.54;99358.66;5007717;28;20026;-71
2022/07/17 04:39:20;;;;;;;4.53;2.00;;;;;;;22.73;44.33;99354.72;5007713;28;20045;-70
2022/07/17 04:41:46;;;;;;;6.35;1.77;;;;;;;22.84;44.10;99361.38;5007798;28;20331;-71
2022/07/17 04:44:12;;;;;;;5.10;2.10;;;;;;;22.86;43.78;99360.16;5025177;28;20045;-70
2022/07/17 04:46:37;;;;;;;3.90;1.83;;;;;;;22.82;44.05;99353.50;5027255;28;20105;-71
2022/07/17 04:49:02;;;;;;;3.10;1.35;;;;;;;22.72;43.74;99353.03;5027128;28;20131;-71
2022/07/17 04:51:28;;;;;;;2.25;1.23;;;;;;;22.53;43.58;99349.28;5027093;28;20033;-71
2022/07/17 04:53:53;;;;;;;1.75;1.13;;;;;;;22.31;43.10;99345.88;5013334;28;20030;-70
2022/07/17 04:56:19;;;;;;;2.50;1.00;;;;;;;22.16;43.36;99349.56;5026677;28;20037;-70
2022/07/17 04:58:44;;;;;;;3.83;1.02;;;;;;;22.10;43.28;99351.19;5027171;28;20014;-70
2022/07/17 05:01:10;;;;;;;2.00;1.17;;;;;;;22.14;43.33;99346.22;5026980;28;20037;-70
2022/07/17 05:03:37;;;;;;;5.88;1.13;;;;;;;22.34;42.91;99354.41;5010581;28;20054;-70
2022/07/17 05:06:03;;;;;;;3.70;1.15;;;;;;;22.42;42.99;99353.44;5007272;28;20026;-70
2022/07/17 05:08:28;;;;;;;6.35;1.60;;;;;;;22.49;43.06;99356.94;5007170;28;20068;-70
2022/07/17 05:10:54;;;;;;;1.35;0.90;;;;;;;22.55;42.81;99358.00;5007262;28;20037;-70
2022/07/17 05:13:19;;;;;;;2.00;1.13;;;;;;;22.58;43.01;99359.44;5008120;28;20131;-70
2022/07/17 05:15:45;;;;;;;1.67;1.17;;;;;;;22.63;43.14;99359.69;5023069;28;20037;-70
2022/07/17 05:18:11;;;;;;;2.03;1.33;;;;;;;22.66;42.93;99353.88;5026804;28;20046;-71
2022/07/17 05:20:36;;;;;;;4.25;1.20;;;;;;;22.70;42.82;99355.97;5026818;28;20029;-70
2022/07/17 05:23:02;;;;;;;3.70;1.10;;;;;;;22.69;42.86;99358.88;5012537;28;20026;-70
2022/07/17 05:25:27;;;;;;;4.22;1.23;;;;;;;22.69;42.75;99351.59;5006976;28;20211;-70
2022/07/17 05:27:53;;;;;;;5.35;1.00;;;;;;;22.67;42.60;99356.38;5006991;28;20077;-71
2022/07/17 05:30:18;;;;;;;2.22;1.50;;;;;;;22.60;42.48;99363.63;5007006;28;20101;-70
2022/07/17 05:32:44;;;;;;;2.63;0.98;;;;;;;22.63;42.42;99363.22;5019257;28;20053;-70
2022/07/17 05:35:09;;;;;;;6.72;1.30;;;;;;;22.85;42.22;99358.50;5026950;28;20060;-70
2022/07/17 05:37:35;;;;;;;2.47;1.40;;;;;;;22.90;41.99;99357.00;5026565;28;20227;-70
2022/07/17 05:40:00;;;;;;;4.82;1.33;;;;;;;22.93;41.99;99359.31;5026706;28;20030;-70
2022/07/17 05:42:26;;;;;;;6.43;1.48;;;;;;;23.10;42.04;99360.56;5014814;28;20026;-70
2022/07/17 05:44:52;;;;;;;3.47;1.23;;;;;;;23.37;41.36;99360.59;5006885;28;20223;-71
2022/07/17 05:47:18;;;;;;;2.38;1.33;;;;;;;23.61;40.95;99356.41;5006890;28;20232;-70
2022/07/17 05:49:43;;;;;;;4.10;1.25;;;;;;;24.01;40.47;99360.91;5007203;28;20033;-70
2022/07/17 05:52:09;;;;;;;2.95;1.25;;;;;;;24.30;39.57;99358.69;5007857;28;20282;-70
2022/07/17 05:54:34;;;;;;;3.03;1.30;;;;;;;24.50;39.23;99358.59;5006734;28;20051;-70
2022/07/17 05:57:00;;;;;;;8.07;1.35;;;;;;;24.68;38.64;99346.19;5006861;28;20058;-71
2022/07/17 05:59:26;;;;;;;3.17;1.42;;;;;;;24.61;38.67;99346.25;5006907;28;20234;-70
2022/07/17 06:01:51;;;;;;;1.38;1.02;;;;;;;24.53;38.72;99351.91;5007743;28;20050;-70
2022/07/17 06:04:17;;;;;;;4.20;1.10;;;;;;;24.55;38.72;99349.00;5006843;28;20061;-71
2022/07/17 06:06:42;;;;;;;9.02;1.40;;;;;;;24.70;38.70;99351.41;5006731;28;20092;-70
2022/07/17 06:09:08;;;;;;;5.63;0.98;;;;;;;24.86;38.33;99348.19;5009576;28;20034;-71
2022/07/17 06:11:34;;;;;;;1.63;0.85;;;;;;;24.93;38.29;99340.84;5011442;28;20045;-71
2022/07/17 06:13:59;;;;;;;4.22;1.23;;;;;;;24.92;38.10;99341.06;5010110;28;20057;-70
2022/07/17 06:16:25;;;;;;;3.28;1.60;;;;;;;24.88;38.31;99346.09;5010322;28;20056;-71
2022/07/17 06:18:50;;;;;;;2.08;1.15;;;;;;;24.89;38.30;99350.47;5010255;28;20076;-71
2022/07/17 06:21:15;;;;;;;6.57;1.02;;;;;;;24.92;38.25;99346.47;5017464;28;20238;-71
2022/07/17 06:23:41;;;;;;;3.53;1.02;;;;;;;24.82;38.51;99344.25;5030056;28;20021;-71
2022/07/17 06:26:07;;;;;;;5.65;1.05;;;;;;;24.77;38.35;99338.69;5029705;28;20038;-71
2022/07/17 06:28:33;;;;;;;5.05;0.90;;;;;;;24.60;38.70;99346.44;5029640;28;20032;-71
2022/07/17 06:30:58;;;;;;;3.60;0.88;;;;;;;24.51;39.24;99349.44;5027960;28;20117;-71
2022/07/17 06:33:24;;;;;;;6.85;1.83;;;;;;;24.47;38.80;99350.91;5029618;28;20227;-71
2022/07/17 06:35:49;;;;;;;6.65;1.40;;;;;;;24.34;38.97;99340.16;5029639;28;20072;-71
2022/07/17 06:38:15;;;;;;;3.75;0.75;;;;;;;24.27;39.20;99333.94;5029503;28;20089;-71
2022/07/17 06:40:40;;;;;;;2.80;0.90;;;;;;;24.21;38.98;99332.94;5023495;28;20033;-72
2022/07/17 06:43:06;;;;;;;1.75;0.90;;;;;;;24.19;39.35;99326.94;5009503;28;20090;-71
2022/07/17 06:45:32;;;;;;;2.45;0.80;;;;;;;24.17;39.59;99332.53;5009545;28;20030;-71
2022/07/17 06:47:57;;;;;;;3.05;1.00;;;;;;;24.18;39.54;99325.28;5009293;28;20030;-71
2022/07/17 06:50:23;;;;;;;2.55;0.95;;;;;;;24.15;39.45;99326.50;5013629;28;20026;-71
2022/07/17 06:52:48;;;;;;;2.60;0.70;;;;;;;24.14;39.60;99319.44;5029602;28;20085;-71
2022/07/17 06:55:14;;;;;;;1.92;0.50;;;;;;;24.14;39.47;99315.94;5029036;28;20092;-71
2022/07/17 06:57:40;;;;;;;1.00;0.40;;;;;;;24.13;39.45;99316.97;5029156;28;20025;-71
2022/07/17 07:00:08;;;;;;;2.38;0.65;;;;;;;24.13;39.06;99325.91;5025723;28;20037;-71
2022/07/17 07:02:34;;;;;;;2.58;0.68;;;;;;;24.13;39.20;99330.50;5009482;28;20052;-71
2022/07/17 07:05:00;;;;;;;1.60;0.40;;;;;;;24.11;39.04;99328.00;5009411;28;20085;-71
2022/07/17 07:07:26;;;;;;;2.05;0.85;;;;;;;24.06;39.37;99322.41;5009298;28;20022;-71
2022/07/17 07:09:51;;;;;;;1.50;0.80;;;;;;;24.03;39.22;99317.44;5010433;28;20049;-71
2022/07/17 07:12:17;;;;;;;3.22;0.63;;;;;;;24.06;39.01;99330.53;5009265;28;20054;-71
2022/07/17 07:14:42;;;;;;;2.17;0.63;;;;;;;24.07;39.01;99327.59;5009052;28;20061;-71
2022/07/17 07:17:08;;;;;;;7.72;0.88;;;;;;;24.08;38.92;99315.75;5009484;28;20030;-71
2022/07/17 07:19:33;;;;;;;2.15;0.68;;;;;;;24.11;39.08;99321.75;5009609;28;20232;-72
2022/07/17 07:21:59;;;;;;;1.77;0.80;;;;;;;23.99;39.39;99317.03;5008986;28;20043;-71
2022/07/17 07:24:24;;;;;;;4.40;1.00;;;;;;;23.95;38.75;99318.47;5009339;28;20045;-71
2022/07/17 07:26:49;;;;;;;4.75;0.90;;;;;;;24.01;39.35;99344.69;5008838;28;20139;-71
2022/07/17 07:29:15;;;;;;;6.40;1.00;;;;;;;24.02;38.97;99330.13;5009038;28;20022;-71
2022/07/17 07:31:40;;;;;;;6.13;0.73;;;;;;;23.97;38.99;99327.22;5028342;28;20033;-71
2022/07/17 07:34:06;;;;;;;3.25;1.17;;;;;;;23.94;38.92;99330.31;5028518;28;20286;-71
2022/07/17 07:36:31;;;;;;;5.75;0.65;;;;;;;23.92;39.06;99321.59;5028320;28;20130;-70
2022/07/17 07:38:57;;;;;;;5.55;0.77;;;;;;;23.82;39.12;99319.38;5028057;28;20041;-69
2022/07/17 07:41:22;;;;;;;3.22;1.00;;;;;;;23.78;38.67;99315.44;5009936;28;20096;-70
2022/07/17 07:43:48;;;;;;;1.30;0.60;;;;;;;23.74;39.12;99309.63;5008578;28;20026;-70
2022/07/17 07:46:13;;;;;;;6.30;1.25;;;;;;;23.70;39.13;99311.09;5008703;28;20045;-71
2022/07/17 07:48:39;;;;;;;1.38;0.60;;;;;;;23.76;38.88;99322.91;5008409;28;20037;-71
2022/07/17 07:51:04;;;;;;;3.25;0.80;;;;;;;23.81;38.90;99316.84;5009674;28;20093;-71
2022/07/17 07:53:30;;;;;;;7.13;1.20;;;;;;;23.84;38.86;99321.84;5008604;28;20089;-71
2022/07/17 07:55:55;;;;;;;3.35;0.77;;;;;;;23.87;39.20;99324.94;5008372;28;20035;-71
2022/07/17 07:58:21;;;;;;;2.08;0.77;;;;;;;23.92;38.47;99329.69;5008348;28;20041;-71
2022/07/17 08:00:46;;;;;;;1.83;0.70;;;;;;;23.93;38.17;99324.09;5024629;28;20026;-71
2022/07/17 08:03:13;;;;;;;3.20;0.77;;;;;;;23.98;38.66;99322.63;5026149;28;20219;-71
2022/07/17 08:05:38;;;;;;;4.65;0.85;;;;;;;23.99;38.34;99318.91;5008254;28;20030;-71
2022/07/17 08:08:04;;;;;;;3.25;0.85;;;;;;;24.04;38.81;99336.13;5008152;28;20084;-71
2022/07/17 08:10:30;;;;;;;1.10;0.60;;;;;;;24.03;38.58;99326.38;5009159;28;20093;-71
2022/07/17 08:12:55;;;;;;;5.70;0.60;;;;;;;24.04;37.82;99330.72;5008004;28;20021;-71
2022/07/17 08:15:21;;;;;;;3.38;0.50;;;;;;;24.02;38.06;99327.44;5007902;28;20097;-71
2022/07/17 08:17:49;;;;;;;0.70;0.63;;;;;;;24.04;38.24;99329.91;5008066;28;20052;-71
2022/07/17 08:20:15;;;;;;;1.52;0.60;;;;;;;24.04;37.93;99322.59;5022535;28;20057;-71
2022/07/17 08:22:42;;;;;;;1.83;0.80;;;;;;;24.05;37.91;99321.56;5027536;28;20040;-71
2022/07/17 08:25:08;;;;;;;1.13;0.80;;;;;;;24.06;37.88;99322.41;5027421;28;20042;-71
2022/07/17 08:27:37;;;;;;;1.92;0.77;;;;;;;24.09;38.21;99324.69;5027487;28;20168;-71
2022/07/17 08:30:05;;;;;;;3.33;0.75;;;;;;;24.12;38.03;99315.31;5012368;28;20030;-71
2022/07/17 08:32:30;;;;;;;3.58;0.77;;;;;;;24.16;37.71;99322.78;5006833;28;20089;-70
2022/07/17 08:34:56;;;;;;;3.45;0.77;;;;;;;24.17;38.26;99323.63;5010890;28;20037;-71
2022/07/17 08:37:22;;;;;;;2.20;0.70;;;;;;;24.17;37.89;99334.44;5027431;28;20084;-70
2022/07/17 08:39:47;;;;;;;4.75;1.23;;;;;;;24.12;38.26;99335.06;5027371;28;20065;-70
2022/07/17 08:42:16;;;;;;;6.65;0.88;;;;;;;24.12;38.07;99340.47;5027424;28;20018;-70
2022/07/17 08:44:45;;;;;;;1.27;0.90;;;;;;;24.13;38.25;99336.72;5025527;28;20036;-70
2022/07/17 08:47:15;;;;;;;0.90;0.63;;;;;;;24.14;38.20;99329.44;5027094;28;20029;-70
2022/07/17 08:49:45;;;;;;;1.73;0.90;;;;;;;24.15;38.39;99336.50;5027163;28;20025;-70
2022/07/17 08:52:12;;;;;;;2.08;1.00;;;;;;;24.14;38.49;99332.16;5027097;28;20094;-71
2022/07/17 08:54:38;;;;;;;3.45;0.88;;;;;;;24.17;38.35;99335.25;5012984;28;20077;-70
2022/07/17 08:57:04;;;;;;;6.45;1.02;;;;;;;24.17;38.27;99327.13;5007312;28;20120;-71
2022/07/17 08:59:30;;;;;;;3.72;0.60;;;;;;;24.16;38.08;99336.28;5007672;28;20026;-71
2022/07/17 09:01:55;;;;;;;5.35;0.80;;;;;;;24.13;38.52;99341.31;5007495;28;20089;-71
2022/07/17 09:04:21;;;;;;;1.02;0.57;;;;;;;24.07;38.11;99351.09;5009631;28;20113;-70
2022/07/17 09:07:00;;;;;;;3.15;0.98;;;;;;;24.05;37.97;99337.78;5026895;28;20085;-70
2022/07/17 09:09:25;;;;;;;1.40;0.75;;;;;;;24.05;38.01;99343.19;5026981;28;20029;-70
2022/07/17 09:11:52;;;;;;;4.80;0.80;;;;;;;24.08;37.89;99341.94;5026865;28;20072;-71
2022/07/17 09:14:19;;;;;;;3.17;0.90;;;;;;;24.09;37.76;99349.00;5023827;28;20036;-71
2022/07/17 09:16:56;;;;;;;4.18;0.80;;;;;;;24.11;37.89;99343.38;5007107;28;20060;-71
2022/07/17 09:19:32;;;;;;;1.52;0.77;;;;;;;24.11;38.41;99346.09;5007202;28;20097;-71
2022/07/17 09:22:24;;;;;;;0.98;0.60;;;;;;;24.13;38.09;99341.31;5007110;28;20042;-71
2022/07/17 09:24:53;;;;;;;4.07;1.23;;;;;;;24.13;38.35;99344.81;5004502;28;20242;-72
2022/07/17 09:27:24;;;;;;;2.25;0.93;;;;;;;24.18;37.64;99352.31;5006769;28;20074;-71
2022/07/17 09:29:54;;;;;;;3.13;0.88;;;;;;;24.22;37.60;99353.50;5006989;28;20175;-71
2022/07/17 09:32:21;;;;;;;1.67;0.98;;;;;;;24.26;37.69;99353.94;5011369;28;20219;-71
2022/07/17 09:34:48;;;;;;;1.40;0.60;;;;;;;24.26;37.22;99354.75;5026655;28;20045;-72
2022/07/17 09:37:14;;;;;;;1.25;0.80;;;;;;;24.30;37.52;99360.56;5026657;28;20026;-72
2022/07/17 09:39:40;;;;;;;3.83;0.98;;;;;;;24.32;37.58;99356.59;5026596;28;20135;-71
2022/07/17 09:42:06;;;;;;;3.40;1.10;;;;;;;24.33;37.30;99352.00;5024607;28;20030;-72
2022/07/17 09:44:31;;;;;;;4.10;1.45;;;;;;;24.30;37.26;99357.84;5012927;28;20147;-71
2022/07/17 09:46:57;;;;;;;1.48;0.85;;;;;;;24.28;36.93;99357.22;5030520;28;20045;-71
2022/07/17 09:49:27;;;;;;;6.97;0.88;;;;;;;24.23;37.26;99349.78;5030548;28;20030;-71
2022/07/17 09:51:53;;;;;;;4.40;0.70;;;;;;;24.24;37.17;99346.03;5026323;28;20031;-71
2022/07/17 09:54:22;;;;;;;4.60;1.08;;;;;;;24.27;36.89;99344.75;5010761;28;20045;-71
2022/07/17 09:56:50;;;;;;;3.83;0.80;;;;;;;24.28;36.99;99332.91;5010659;28;20113;-70
2022/07/17 09:59:17;;;;;;;2.05;0.90;;;;;;;24.30;36.94;99336.22;5010712;28;20054;-71
2022/07/17 10:01:44;;;;;;;2.78;0.88;;;;;;;24.30;37.04;99337.06;5013130;28;20022;-71
2022/07/17 10:04:12;;;;;;;1.55;0.88;;;;;;;24.28;36.99;99343.72;5028390;28;20037;-72
2022/07/17 10:06:38;;;;;;;3.20;0.80;;;;;;;24.29;36.78;99340.81;5030190;28;20239;-72
2022/07/17 10:09:05;;;;;;;1.92;0.80;;;;;;;24.30;37.00;99341.63;5030050;28;20046;-72
2022/07/17 10:11:34;;;;;;;2.15;1.00;;;;;;;24.36;36.91;99354.28;5029830;28;20299;-72
2022/07/17 10:14:08;;;;;;;3.13;0.82;;;;;;;24.33;36.99;99346.59;5017025;28;20046;-72
2022/07/17 10:16:37;;;;;;;3.75;1.15;;;;;;;24.40;37.26;99363.63;5010112;28;20029;-72
2022/07/17 10:19:15;;;;;;;3.85;0.88;;;;;;;24.40;36.84;99360.09;5010229;28;20060;-71
2022/07/17 10:22:01;;;;;;;4.95;1.10;;;;;;;24.38;36.70;99353.03;5010186;28;20026;-71
2022/07/17 10:24:28;;;;;;;4.47;0.90;;;;;;;24.30;36.68;99347.03;5026931;28;20028;-71
2022/07/17 10:26:54;;;;;;;2.25;1.10;;;;;;;24.18;36.63;99341.50;5029651;28;20050;-71
2022/07/17 10:29:52;;;;;;;2.40;1.00;;;;;;;24.22;36.77;99345.41;5029731;28;20119;-71
2022/07/17 10:32:19;;;;;;;6.95;1.20;;;;;;;24.21;36.87;99349.16;5011438;28;20053;-70
2022/07/17 10:34:47;;;;;;;2.70;0.98;;;;;;;24.12;37.40;99345.03;5029615;28;20030;-70
2022/07/17 10:37:21;;;;;;;4.35;1.30;;;;;;;24.13;37.09;99346.69;5029469;28;20022;-72
2022/07/17 10:39:53;;;;;;;12.25;2.97;;;;;;;24.19;37.21;99346.69;5029569;28;20041;-70
2022/07/17 10:42:47;;;;;;;8.07;3.25;;;;;;;24.24;37.58;99332.50;5027474;28;20097;-70
2022/07/17 10:45:39;;;;;;;18.90;4.78;;;;;;;24.29;37.47;99339.97;5029557;28;20030;-72
2022/07/17 10:48:09;;;;;;;44.03;9.02;;;;;;;24.31;37.83;99343.28;5029350;28;20093;-71
2022/07/17 10:50:38;;;;;;;35.25;10.45;;;;;;;24.33;37.55;99349.31;5029382;28;20045;-71
2022/07/17 10:53:11;;;;;;;45.17;10.98;;;;;;;24.36;38.06;99343.47;5018779;28;20089;-71
2022/07/17 10:55:40;;;;;;;28.75;6.35;;;;;;;24.37;37.60;99337.03;5025970;28;20151;-72
2022/07/17 10:58:17;;;;;;;15.85;5.78;;;;;;;24.40;37.50;99343.88;5029137;28;20065;-71
2022/07/17 11:00:43;;;;;;;17.75;5.55;;;;;;;24.40;37.48;99333.06;5029151;28;20080;-71
2022/07/17 11:03:11;;;;;;;12.30;3.58;;;;;;;24.43;37.41;99321.81;5016481;28;20034;-71
2022/07/17 11:05:37;;;;;;;11.88;2.33;;;;;;;24.44;37.04;99307.25;5009434;28;20057;-71
2022/07/17 11:08:06;;;;;;;4.88;1.73;;;;;;;24.45;37.06;99308.91;5009635;28;20041;-71
2022/07/17 11:10:31;;;;;;;6.85;2.97;;;;;;;24.50;36.99;99311.75;5009370;28;20098;-72
2022/07/17 11:13:08;;;;;;;2.67;1.63;;;;;;;24.52;36.94;99315.94;5020672;28;20042;-71
2022/07/17 11:15:45;;;;;;;3.35;1.33;;;;;;;24.52;36.33;99312.38;5028709;28;20068;-71
2022/07/17 11:18:21;;;;;;;6.50;1.50;;;;;;;24.54;36.84;99321.09;5028723;28;20097;-72
2022/07/17 11:20:55;;;;;;;2.22;1.23;;;;;;;24.55;36.66;99327.34;5028828;28;20041;-71
2022/07/17 11:23:22;;;;;;;4.45;1.20;;;;;;;24.57;36.75;99333.34;5012033;28;20022;-70
2022/07/17 11:25:55;;;;;;;5.43;1.85;;;;;;;24.57;36.62;99333.34;5008988;28;20069;-70
2022/07/17 11:28:38;;;;;;;4.28;1.23;;;;;;;24.52;36.28;99324.03;5008865;28;20050;-71
2022/07/17 11:31:26;;;;;;;3.88;1.10;;;;;;;24.46;36.63;99333.00;5009116;28;20041;-70
2022/07/17 11:34:01;;;;;;;2.58;0.95;;;;;;;24.45;36.71;99317.00;5008790;28;20076;-71